GWMSD EGPC-EGPE
Flight info
| Callsign | GWMSD |
|---|---|
| Flight time | 0h 19m |
| Altitude | 18000 |
| Route | WIK N560 GUSSI DCT INS |
| Aircraft | TBM9/L-SDFGRWY/S |
Departure
| Time | 2026-05-05 22:06 |
|---|---|
| Airport | Wick John O'Groats Airport (EGPC) |
Arrival
| Time | 2026-05-05 22:25 |
|---|---|
| Airport | Inverness Airport (EGPE) |
| Time | Latitude | Longitude | Altitude | Speed | Heading |
|---|---|---|---|---|---|
| 2026-05-05 21:56 | 58.45395 | -3.08849 | 120 ft | 0 kts | 134° |
| 2026-05-05 21:57 | 58.45395 | -3.08850 | 120 ft | 0 kts | 134° |
| 2026-05-05 22:04 | 58.45385 | -3.08816 | 118 ft | 10 kts | 103° |
| 2026-05-05 22:04 | 58.45435 | -3.08759 | 120 ft | 11 kts | 324° |
| 2026-05-05 22:04 | 58.45492 | -3.08771 | 119 ft | 10 kts | 46° |
| 2026-05-05 22:04 | 58.45545 | -3.08670 | 120 ft | 11 kts | 55° |
| 2026-05-05 22:05 | 58.45591 | -3.08588 | 119 ft | 6 kts | 343° |
| 2026-05-05 22:05 | 58.45654 | -3.08733 | 122 ft | 37 kts | 307° |
| 2026-05-05 22:05 | 58.45925 | -3.09418 | 119 ft | 92 kts | 306° |
| 2026-05-05 22:05 | 58.46330 | -3.10503 | 480 ft | 102 kts | 302° |
| 2026-05-05 22:06 | 58.46709 | -3.11606 | 991 ft | 96 kts | 306° |
| 2026-05-05 22:06 | 58.47082 | -3.12659 | 1428 ft | 98 kts | 305° |
| 2026-05-05 22:06 | 58.47467 | -3.13785 | 1839 ft | 104 kts | 306° |
| 2026-05-05 22:06 | 58.47883 | -3.14977 | 2261 ft | 111 kts | 304° |
| 2026-05-05 22:07 | 58.47943 | -3.16443 | 2691 ft | 124 kts | 243° |
| 2026-05-05 22:07 | 58.47198 | -3.17303 | 3127 ft | 136 kts | 196° |
| 2026-05-05 22:07 | 58.46250 | -3.17725 | 3567 ft | 143 kts | 197° |
| 2026-05-05 22:07 | 58.45254 | -3.18169 | 4004 ft | 150 kts | 196° |
| 2026-05-05 22:08 | 58.44217 | -3.18627 | 4467 ft | 154 kts | 196° |
| 2026-05-05 22:08 | 58.43175 | -3.19080 | 5039 ft | 153 kts | 195° |
| 2026-05-05 22:08 | 58.42213 | -3.19822 | 5585 ft | 148 kts | 214° |
| 2026-05-05 22:08 | 58.41330 | -3.20806 | 6138 ft | 146 kts | 211° |
| 2026-05-05 22:09 | 58.40437 | -3.21708 | 6691 ft | 144 kts | 211° |
| 2026-05-05 22:09 | 58.39558 | -3.22578 | 7217 ft | 141 kts | 211° |
| 2026-05-05 22:09 | 58.38696 | -3.23423 | 7752 ft | 137 kts | 212° |
| 2026-05-05 22:09 | 58.37858 | -3.24242 | 8290 ft | 133 kts | 212° |
| 2026-05-05 22:10 | 58.37052 | -3.25025 | 8824 ft | 127 kts | 213° |
| 2026-05-05 22:10 | 58.36275 | -3.25784 | 9299 ft | 127 kts | 214° |
| 2026-05-05 22:10 | 58.35487 | -3.26561 | 9800 ft | 128 kts | 215° |
| 2026-05-05 22:10 | 58.34700 | -3.27334 | 10264 ft | 127 kts | 216° |
| 2026-05-05 22:11 | 58.33917 | -3.28094 | 10712 ft | 125 kts | 216° |
| 2026-05-05 22:11 | 58.33145 | -3.28844 | 11150 ft | 124 kts | 217° |
| 2026-05-05 22:11 | 58.32366 | -3.29613 | 11532 ft | 128 kts | 217° |
| 2026-05-05 22:11 | 58.31561 | -3.30411 | 11923 ft | 133 kts | 217° |
| 2026-05-05 22:12 | 58.30730 | -3.31228 | 12322 ft | 137 kts | 217° |
| 2026-05-05 22:12 | 58.29870 | -3.32071 | 12729 ft | 141 kts | 217° |
| 2026-05-05 22:12 | 58.28982 | -3.32939 | 13143 ft | 146 kts | 217° |
| 2026-05-05 22:12 | 58.28063 | -3.33837 | 13562 ft | 151 kts | 217° |
| 2026-05-05 22:13 | 58.27114 | -3.34763 | 13979 ft | 155 kts | 217° |
| 2026-05-05 22:13 | 58.26144 | -3.35710 | 14353 ft | 161 kts | 218° |
| 2026-05-05 22:13 | 58.25132 | -3.36697 | 14740 ft | 166 kts | 217° |
| 2026-05-05 22:13 | 58.24090 | -3.37713 | 15121 ft | 171 kts | 217° |
| 2026-05-05 22:14 | 58.23015 | -3.38759 | 15517 ft | 176 kts | 217° |
| 2026-05-05 22:14 | 58.21909 | -3.39833 | 15914 ft | 180 kts | 217° |
| 2026-05-05 22:14 | 58.20781 | -3.40929 | 16309 ft | 185 kts | 217° |
| 2026-05-05 22:14 | 58.19623 | -3.42052 | 16708 ft | 188 kts | 217° |
| 2026-05-05 22:15 | 58.18460 | -3.43173 | 17227 ft | 186 kts | 217° |
| 2026-05-05 22:15 | 58.17318 | -3.44271 | 17770 ft | 182 kts | 218° |
| 2026-05-05 22:15 | 58.16185 | -3.45371 | 18133 ft | 189 kts | 218° |
| 2026-05-05 22:15 | 58.14951 | -3.46602 | 18136 ft | 211 kts | 217° |
| 2026-05-05 22:16 | 58.13589 | -3.47928 | 18151 ft | 229 kts | 216° |
| 2026-05-05 22:16 | 58.12126 | -3.49336 | 18150 ft | 243 kts | 215° |
| 2026-05-05 22:16 | 58.10586 | -3.50817 | 18149 ft | 253 kts | 214° |
| 2026-05-05 22:16 | 58.09011 | -3.52332 | 18145 ft | 261 kts | 214° |
| 2026-05-05 22:17 | 58.07355 | -3.53933 | 17903 ft | 274 kts | 214° |
| 2026-05-05 22:17 | 58.05628 | -3.55604 | 17637 ft | 284 kts | 214° |
| 2026-05-05 22:17 | 58.03844 | -3.57318 | 17372 ft | 290 kts | 214° |
| 2026-05-05 22:17 | 58.02025 | -3.59058 | 17105 ft | 294 kts | 213° |
| 2026-05-05 22:18 | 58.00189 | -3.60816 | 16839 ft | 297 kts | 213° |
| 2026-05-05 22:18 | 57.98340 | -3.62585 | 16573 ft | 298 kts | 213° |
| 2026-05-05 22:18 | 57.96486 | -3.64356 | 16311 ft | 299 kts | 213° |
| 2026-05-05 22:18 | 57.94622 | -3.66134 | 16051 ft | 300 kts | 213° |
| 2026-05-05 22:19 | 57.92771 | -3.67940 | 15790 ft | 300 kts | 214° |
| 2026-05-05 22:19 | 57.90933 | -3.69835 | 15355 ft | 304 kts | 215° |
| 2026-05-05 22:19 | 57.89006 | -3.71595 | 14832 ft | 313 kts | 206° |
| 2026-05-05 22:19 | 57.86920 | -3.72900 | 14312 ft | 318 kts | 202° |
| 2026-05-05 22:20 | 57.84802 | -3.74121 | 13809 ft | 319 kts | 202° |
| 2026-05-05 22:20 | 57.82705 | -3.75324 | 13272 ft | 319 kts | 202° |
| 2026-05-05 22:20 | 57.80589 | -3.76543 | 12731 ft | 318 kts | 202° |
| 2026-05-05 22:20 | 57.78480 | -3.77770 | 12198 ft | 316 kts | 202° |
| 2026-05-05 22:21 | 57.76382 | -3.79000 | 11679 ft | 315 kts | 202° |
| 2026-05-05 22:21 | 57.74302 | -3.80233 | 11165 ft | 310 kts | 202° |
| 2026-05-05 22:21 | 57.72273 | -3.81445 | 10585 ft | 304 kts | 202° |
| 2026-05-05 22:21 | 57.70265 | -3.82651 | 9901 ft | 300 kts | 202° |
| 2026-05-05 22:22 | 57.68296 | -3.83848 | 9155 ft | 292 kts | 201° |
| 2026-05-05 22:22 | 57.66457 | -3.84907 | 8414 ft | 261 kts | 198° |
| 2026-05-05 22:22 | 57.64770 | -3.85580 | 7679 ft | 236 kts | 194° |
| 2026-05-05 22:22 | 57.63223 | -3.86178 | 6976 ft | 219 kts | 200° |
| 2026-05-05 22:23 | 57.62021 | -3.87680 | 6239 ft | 205 kts | 231° |
| 2026-05-05 22:23 | 57.61152 | -3.89721 | 5346 ft | 204 kts | 233° |
| 2026-05-05 22:23 | 57.60230 | -3.91750 | 4423 ft | 206 kts | 231° |
| 2026-05-05 22:23 | 57.59292 | -3.93780 | 3489 ft | 207 kts | 231° |
| 2026-05-05 22:24 | 57.58359 | -3.95838 | 2551 ft | 208 kts | 230° |
| 2026-05-05 22:24 | 57.57410 | -3.97892 | 1589 ft | 209 kts | 230° |
| 2026-05-05 22:24 | 57.56475 | -3.99929 | 829 ft | 201 kts | 230° |
| 2026-05-05 22:24 | 57.55641 | -4.01770 | 503 ft | 152 kts | 227° |
| 2026-05-05 22:25 | 57.55062 | -4.02994 | 225 ft | 117 kts | 227° |
| 2026-05-05 22:25 | 57.54548 | -4.04109 | 31 ft | 102 kts | 228° |
| 2026-05-05 22:25 | 57.54156 | -4.04947 | 30 ft | 72 kts | 231° |
| 2026-05-05 22:25 | 57.53887 | -4.05540 | 35 ft | 49 kts | 230° |
| 2026-05-05 22:26 | 57.53733 | -4.05886 | 34 ft | 23 kts | 240° |
| 2026-05-05 22:26 | 57.53751 | -4.06100 | 32 ft | 19 kts | 306° |
| 2026-05-05 22:26 | 57.53857 | -4.06177 | 31 ft | 17 kts | 5° |
| 2026-05-05 22:26 | 57.53975 | -4.06158 | 31 ft | 17 kts | 7° |
| 2026-05-05 22:27 | 57.54102 | -4.06139 | 31 ft | 18 kts | 350° |
| 2026-05-05 22:27 | 57.54207 | -4.06230 | 31 ft | 17 kts | 333° |
| 2026-05-05 22:27 | 57.54288 | -4.06293 | 31 ft | 8 kts | 300° |
| 2026-05-05 22:27 | 57.54290 | -4.06350 | 31 ft | 0 kts | 273° |
| 2026-05-05 22:34 | 57.54290 | -4.06349 | 31 ft | 0 kts | 273° |